X  Close Metar Aviation Weather Data     LYNI Nis Airport
Temperature
32°C Temperature
14°C Dewpoint
33% Humidity



Wind
4 M/S
9 MPH
14 KM/H
8 KTS



310°
NW
Current Conditions

Partly Cloudy Partly Cloudy
Pressure 1011.92 (hPa) - 29.88 (inHg)
Visibility 6.2 (mile) - 10 (km)
Airport
Airport-code LYNI

Location: Nis Airport
Distance: 63 (km)

Metar:
LYNI 171330Z 31008KT 270V340 9999 FEW040 32/14 Q1012 NOSIG

Time: 17-08-2022 15:30 CEST